createdAt,value
2019-02-08T00:01:10.993Z,16.47
2019-02-08T00:05:15.220Z,17.33
2019-02-08T00:09:19.401Z,16.67
2019-02-08T00:13:24.009Z,14.70
2019-02-08T00:17:28.270Z,14.10
2019-02-08T00:21:32.681Z,14.80
2019-02-08T00:25:37.185Z,16.27
2019-02-08T00:29:41.391Z,17.33
2019-02-08T00:33:45.630Z,18.33
2019-02-08T00:37:49.838Z,13.57
2019-02-08T00:41:54.069Z,17.80
2019-02-08T00:45:58.340Z,19.20
2019-02-08T00:50:02.567Z,14.43
2019-02-08T00:54:07.006Z,16.77
2019-02-08T00:58:11.189Z,18.90
2019-02-08T01:02:15.413Z,18.20
2019-02-08T01:06:19.619Z,15.20
2019-02-08T01:10:26.222Z,16.10
2019-02-08T01:14:30.439Z,15.90
2019-02-08T01:18:34.630Z,14.33
2019-02-08T01:22:39.239Z,13.60
2019-02-08T01:26:43.520Z,15.70
2019-02-08T01:30:47.739Z,16.90
2019-02-08T01:34:52.180Z,15.23
2019-02-08T01:38:56.416Z,17.90
2019-02-08T01:43:01.369Z,18.20
2019-02-08T01:47:05.598Z,17.70
2019-02-08T01:51:09.813Z,14.80
2019-02-08T01:55:14.352Z,13.43
2019-02-08T01:59:18.556Z,20.20
2019-02-08T02:03:23.990Z,15.70
2019-02-08T02:07:28.257Z,19.17
2019-02-08T02:11:32.503Z,16.20
2019-02-08T02:15:36.678Z,14.03
2019-02-08T02:19:40.898Z,18.40
2019-02-08T02:23:45.455Z,16.50
2019-02-08T02:27:49.838Z,18.73
2019-02-08T02:31:54.057Z,15.07
2019-02-08T02:35:58.291Z,14.23
2019-02-08T02:40:02.533Z,14.63
2019-02-08T02:44:06.738Z,16.40
2019-02-08T02:48:14.222Z,17.03
2019-02-08T02:52:18.443Z,18.07
2019-02-08T02:56:22.699Z,19.20
2019-02-08T03:00:36.359Z,21.63
2019-02-08T03:04:40.869Z,15.87
2019-02-08T03:08:45.066Z,21.17
2019-02-08T03:12:49.329Z,13.07
2019-02-08T03:16:53.657Z,17.30
2019-02-08T03:20:57.837Z,13.03
2019-02-08T03:25:02.135Z,15.13
2019-02-08T03:29:06.347Z,16.77
2019-02-08T03:33:10.563Z,19.77
2019-02-08T03:37:14.787Z,19.50
2019-02-08T03:41:19.488Z,18.67
2019-02-08T03:45:24.189Z,17.17
2019-02-08T03:49:28.404Z,20.13
2019-02-08T03:53:32.951Z,16.90
2019-02-08T03:57:37.292Z,18.17
2019-02-08T04:01:41.508Z,18.13
2019-02-08T04:05:45.734Z,16.40
2019-02-08T04:09:49.928Z,18.30
2019-02-08T04:13:54.180Z,18.73
2019-02-08T04:17:58.743Z,22.10
2019-02-08T04:22:02.964Z,15.20
2019-02-08T04:26:07.250Z,16.87
2019-02-08T04:30:15.495Z,16.03
2019-02-08T04:34:19.727Z,18.27
2019-02-08T04:38:23.964Z,19.37
2019-02-08T04:42:28.339Z,15.13
2019-02-08T04:46:32.529Z,20.43
2019-02-08T04:50:36.747Z,19.00
2019-02-08T04:54:40.971Z,20.23
2019-02-08T04:58:45.201Z,15.60
2019-02-08T05:02:49.400Z,16.47
2019-02-08T05:06:53.620Z,17.17
2019-02-08T05:10:58.199Z,20.00
2019-02-08T05:15:02.571Z,15.17
2019-02-08T05:19:06.791Z,20.83
2019-02-08T05:23:11.379Z,17.67
2019-02-08T05:27:15.650Z,18.13
2019-02-08T05:31:19.876Z,18.73
2019-02-08T05:35:24.402Z,17.53
2019-02-08T05:39:28.627Z,22.57
2019-02-08T05:43:32.852Z,17.70
2019-02-08T05:47:37.042Z,18.13
2019-02-08T05:51:41.293Z,16.20
2019-02-08T05:55:45.538Z,20.30
2019-02-08T05:59:49.771Z,17.00
2019-02-08T06:03:54.035Z,17.23
2019-02-08T06:07:58.272Z,19.47
2019-02-08T06:12:02.465Z,18.63
2019-02-08T06:16:06.910Z,16.97
2019-02-08T06:20:13.013Z,18.87
2019-02-08T06:24:17.231Z,16.50
2019-02-08T06:28:21.459Z,17.23
2019-02-08T06:32:26.115Z,14.20
2019-02-08T06:36:30.525Z,15.93
2019-02-08T06:40:35.512Z,14.60
2019-02-08T06:44:40.138Z,15.00
2019-02-08T06:49:04.913Z,16.93
2019-02-08T06:53:09.240Z,12.83
2019-02-08T06:57:38.515Z,13.33
2019-02-08T07:01:53.212Z,20.40
2019-02-08T07:06:08.192Z,11.83
2019-02-08T07:10:24.561Z,13.67
2019-02-08T07:14:46.679Z,13.37
2019-02-08T07:19:12.785Z,14.17
2019-02-08T07:23:41.907Z,11.20
2019-02-08T07:27:56.190Z,16.13
2019-02-08T07:32:19.401Z,13.43
2019-02-08T07:36:42.877Z,13.40
2019-02-08T07:41:04.497Z,16.47
2019-02-08T07:45:44.391Z,16.13
2019-02-08T07:49:59.745Z,14.60
2019-02-08T07:54:24.712Z,15.10
2019-02-08T07:58:53.260Z,15.27
2019-02-08T08:03:15.503Z,13.53
2019-02-08T08:07:47.518Z,13.27
2019-02-08T08:12:20.071Z,14.73
2019-02-08T08:16:43.461Z,17.57
2019-02-08T08:21:10.040Z,17.30
2019-02-08T08:25:40.878Z,15.10
2019-02-08T08:30:05.227Z,19.67
2019-02-08T08:34:16.115Z,18.27
2019-02-08T08:38:56.706Z,17.37
2019-02-08T08:43:15.167Z,18.87
2019-02-08T08:47:58.367Z,16.13
2019-02-08T08:52:25.038Z,15.73
2019-02-08T08:56:53.530Z,14.00
2019-02-08T09:01:44.827Z,14.87
2019-02-08T09:06:36.110Z,17.03
2019-02-08T09:11:15.430Z,14.40
2019-02-08T09:16:02.861Z,15.30
2019-02-08T09:20:32.924Z,14.57
2019-02-08T09:25:24.278Z,13.63
2019-02-08T09:30:05.317Z,12.43
2019-02-08T09:34:44.763Z,11.90
2019-02-08T09:39:22.663Z,14.20
2019-02-08T09:44:16.243Z,14.63
2019-02-08T09:49:15.913Z,13.77
2019-02-08T09:54:02.152Z,16.20
2019-02-08T09:58:46.267Z,16.07
2019-02-08T10:03:30.837Z,13.03
2019-02-08T10:08:22.237Z,12.83
2019-02-08T10:13:06.184Z,13.47
2019-02-08T10:17:46.445Z,13.20
2019-02-08T10:22:38.892Z,13.07
2019-02-08T10:27:21.383Z,13.07
2019-02-08T10:32:04.450Z,13.73
2019-02-08T10:36:59.990Z,16.57
2019-02-08T10:41:31.965Z,15.07
2019-02-08T10:46:24.121Z,13.53
2019-02-08T10:51:12.612Z,14.17
2019-02-08T10:55:59.602Z,12.40
2019-02-08T11:01:12.115Z,10.43
2019-02-08T11:06:15.882Z,13.00
2019-02-08T11:11:10.602Z,12.43
2019-02-08T11:15:54.810Z,10.80
2019-02-08T11:19:59.051Z,10.90
2019-02-08T11:24:03.267Z,10.60
2019-02-08T11:28:07.491Z,12.83
2019-02-08T11:32:12.058Z,11.53
2019-02-08T11:36:16.296Z,10.33
2019-02-08T11:40:24.605Z,12.07
2019-02-08T11:44:28.829Z,11.80
2019-02-08T11:48:33.066Z,10.77
2019-02-08T11:52:37.291Z,8.40
2019-02-08T11:56:42.126Z,11.50
2019-02-08T12:00:50.179Z,11.73
2019-02-08T12:04:54.370Z,10.30
2019-02-08T12:08:58.581Z,9.20
2019-02-08T12:13:02.796Z,7.57
2019-02-08T12:17:07.071Z,6.97
2019-02-08T12:21:11.611Z,8.97
2019-02-08T12:25:16.379Z,7.80
2019-02-08T12:29:20.604Z,7.53
2019-02-08T12:33:24.829Z,15.73
2019-02-08T12:37:29.023Z,6.00
2019-02-08T12:41:33.248Z,8.70
2019-02-08T12:45:37.829Z,8.63
2019-02-08T12:49:42.037Z,8.70
2019-02-08T12:53:46.264Z,7.73
2019-02-08T12:57:50.472Z,7.20
2019-02-08T13:01:54.677Z,8.60
2019-02-08T13:05:58.944Z,5.77
2019-02-08T13:10:03.164Z,7.30
2019-02-08T13:14:07.821Z,10.00
2019-02-08T13:18:12.035Z,8.27
2019-02-08T13:22:16.218Z,10.07
2019-02-08T13:26:20.429Z,6.43
2019-02-08T13:30:27.036Z,8.43
2019-02-08T13:34:31.239Z,8.40
2019-02-08T13:38:35.448Z,9.20
2019-02-08T13:42:39.642Z,6.30
2019-02-08T13:46:43.847Z,7.50
2019-02-08T13:50:48.011Z,6.87
2019-02-08T13:54:52.229Z,6.17
2019-02-08T13:58:56.432Z,7.27
2019-02-08T14:03:00.731Z,6.83
2019-02-08T14:07:04.957Z,7.63
2019-02-08T14:11:09.178Z,8.10
2019-02-08T14:15:13.883Z,6.50
2019-02-08T14:19:18.092Z,6.63
2019-02-08T14:23:22.296Z,7.93
2019-02-08T14:27:26.662Z,6.23
2019-02-08T14:31:30.825Z,6.23
2019-02-08T14:35:35.597Z,4.53
2019-02-08T14:39:39.851Z,7.43
2019-02-08T14:43:44.060Z,7.33
2019-02-08T14:47:48.264Z,7.03
2019-02-08T14:51:52.506Z,6.80
2019-02-08T14:55:56.732Z,7.57
2019-02-08T15:00:00.962Z,8.93
2019-02-08T15:04:07.598Z,7.63
2019-02-08T15:08:12.119Z,12.73
2019-02-08T15:12:16.319Z,8.50
2019-02-08T15:16:20.532Z,7.67
2019-02-08T15:20:27.151Z,5.77
2019-02-08T15:24:31.356Z,11.93
2019-02-08T15:28:35.557Z,7.73
2019-02-08T15:32:39.850Z,8.63
2019-02-08T15:36:49.271Z,13.87
2019-02-08T15:40:53.127Z,7.40
2019-02-08T15:44:58.231Z,7.63
2019-02-08T15:49:02.459Z,7.80
2019-02-08T15:53:07.265Z,7.47
2019-02-08T15:57:11.456Z,10.40
2019-02-08T16:01:15.785Z,8.67
2019-02-08T16:05:20.449Z,10.97
2019-02-08T16:09:25.054Z,9.60
2019-02-08T16:13:29.218Z,9.13
2019-02-08T16:17:33.631Z,8.13
2019-02-08T16:21:37.803Z,7.97
2019-02-08T16:25:42.014Z,8.20
2019-02-08T16:29:46.216Z,9.93
2019-02-08T16:33:50.549Z,10.73
2019-02-08T16:37:55.152Z,10.23
2019-02-08T16:41:59.432Z,9.83
2019-02-08T16:46:03.731Z,9.07
2019-02-08T16:50:10.481Z,9.20
2019-02-08T16:54:14.697Z,14.93
2019-02-08T16:58:18.932Z,9.83
2019-02-08T17:02:23.162Z,13.40
2019-02-08T17:06:27.420Z,16.17
2019-02-08T17:10:31.626Z,14.37
2019-02-08T17:14:35.844Z,15.00
2019-02-08T17:18:40.049Z,13.23
2019-02-08T17:22:44.248Z,17.60
2019-02-08T17:26:48.871Z,12.63
2019-02-08T17:30:53.108Z,14.07
2019-02-08T17:34:57.442Z,18.00
2019-02-08T17:39:02.184Z,13.73
2019-02-08T17:43:06.871Z,14.47
2019-02-08T17:47:11.077Z,14.17
2019-02-08T17:51:15.293Z,12.33
2019-02-08T17:55:20.802Z,16.10
2019-02-08T17:59:25.463Z,13.63
2019-02-08T18:03:29.783Z,16.07
2019-02-08T18:07:34.035Z,15.47
2019-02-08T18:11:38.246Z,12.50
2019-02-08T18:15:46.201Z,15.30
2019-02-08T18:19:51.067Z,13.87
2019-02-08T18:23:59.621Z,10.60
2019-02-08T18:28:10.890Z,13.17
2019-02-08T18:32:14.784Z,17.47
2019-02-08T18:36:19.993Z,15.23
2019-02-08T18:40:24.959Z,16.43
2019-02-08T18:44:29.812Z,17.27
2019-02-08T18:48:37.184Z,17.43
2019-02-08T18:52:42.152Z,15.60
2019-02-08T18:56:47.345Z,18.77
2019-02-08T19:00:59.702Z,19.63
2019-02-08T19:05:07.513Z,20.77
2019-02-08T19:09:12.407Z,18.70
2019-02-08T19:13:17.467Z,20.87
2019-02-08T19:17:22.502Z,16.47
2019-02-08T19:21:28.370Z,15.80
2019-02-08T19:25:41.400Z,17.80
2019-02-08T19:29:53.456Z,14.40
2019-02-08T19:34:12.181Z,14.43
2019-02-08T19:38:17.161Z,13.33
2019-02-08T19:42:22.266Z,15.90
2019-02-08T19:46:30.732Z,15.83
2019-02-08T19:50:41.635Z,21.87
2019-02-08T19:54:46.830Z,18.03
2019-02-08T19:58:56.996Z,17.57
2019-02-08T20:03:22.658Z,16.60
2019-02-08T20:07:40.591Z,14.27
2019-02-08T20:11:51.843Z,14.50
2019-02-08T20:15:56.757Z,16.13
2019-02-08T20:20:05.335Z,13.20
2019-02-08T20:24:13.733Z,14.30
2019-02-08T20:28:19.970Z,13.50
2019-02-08T20:32:47.807Z,16.87
2019-02-08T20:37:23.906Z,17.20
2019-02-08T20:41:30.464Z,16.93
2019-02-08T20:45:46.926Z,14.60
2019-02-08T20:50:08.336Z,15.37
2019-02-08T20:54:23.649Z,15.03
2019-02-08T20:58:39.496Z,14.10
2019-02-08T21:02:47.532Z,15.70
2019-02-08T21:06:59.402Z,17.67
2019-02-08T21:11:12.312Z,17.53
2019-02-08T21:15:36.334Z,15.60
2019-02-08T21:19:49.488Z,13.80
2019-02-08T21:24:22.459Z,19.93
2019-02-08T21:33:24.076Z,15.00
2019-02-08T21:37:32.762Z,15.67
2019-02-08T21:41:37.758Z,16.00
2019-02-08T21:45:43.904Z,16.10
2019-02-08T21:49:48.114Z,16.57
2019-02-08T21:53:52.321Z,19.50
2019-02-08T21:57:56.545Z,16.63
2019-02-08T22:02:00.748Z,18.30
2019-02-08T22:06:08.565Z,16.53
2019-02-08T22:10:13.495Z,14.37
2019-02-08T22:14:18.088Z,15.63
2019-02-08T22:18:22.275Z,14.70
2019-02-08T22:22:26.471Z,17.93
2019-02-08T22:26:30.680Z,17.27
2019-02-08T22:30:35.140Z,20.03
2019-02-08T22:34:39.389Z,14.63
2019-02-08T22:38:43.610Z,17.00
2019-02-08T22:42:47.943Z,14.50
2019-02-08T22:46:51.145Z,19.37
2019-02-08T22:50:55.761Z,15.03
2019-02-08T22:55:00.271Z,17.47
2019-02-08T22:59:04.489Z,16.30
2019-02-08T23:03:09.584Z,16.20
2019-02-08T23:07:13.791Z,17.67
2019-02-08T23:11:18.158Z,15.67
2019-02-08T23:15:22.368Z,14.07
2019-02-08T23:19:26.604Z,16.50
2019-02-08T23:23:30.791Z,18.67
2019-02-08T23:27:35.016Z,13.70
2019-02-08T23:31:39.267Z,17.10
2019-02-08T23:35:43.547Z,16.63
2019-02-08T23:39:47.710Z,17.00
2019-02-08T23:43:51.939Z,16.10
2019-02-08T23:47:56.288Z,14.27
2019-02-08T23:52:00.448Z,14.27
2019-02-08T23:56:04.887Z,15.33
